sensor_id;sensor_type;location;lat;lon;timestamp;pressure;altitude;pressure_sealevel;temperature;humidity
34983;BME280;21187;50.976;13.720;2023-03-17T00:00:54;98397.38;;;7.15;37.68
34983;BME280;21187;50.976;13.720;2023-03-17T00:05:57;98398.38;;;7.10;37.26
34983;BME280;21187;50.976;13.720;2023-03-17T00:11:00;98383.97;;;7.06;37.38
34983;BME280;21187;50.976;13.720;2023-03-17T00:16:03;98377.78;;;7.06;37.24
34983;BME280;21187;50.976;13.720;2023-03-17T00:21:12;98361.50;;;7.02;36.95
34983;BME280;21187;50.976;13.720;2023-03-17T00:26:16;98361.00;;;7.00;36.83
34983;BME280;21187;50.976;13.720;2023-03-17T00:31:20;98334.41;;;6.98;36.43
34983;BME280;21187;50.976;13.720;2023-03-17T00:36:30;98332.03;;;6.97;36.64
34983;BME280;21187;50.976;13.720;2023-03-17T00:41:36;98337.25;;;6.93;36.45
34983;BME280;21187;50.976;13.720;2023-03-17T00:46:40;98338.84;;;6.94;36.82
34983;BME280;21187;50.976;13.720;2023-03-17T00:51:43;98332.66;;;6.94;36.47
34983;BME280;21187;50.976;13.720;2023-03-17T00:56:46;98325.06;;;6.96;36.46
34983;BME280;21187;50.976;13.720;2023-03-17T01:01:49;98322.81;;;6.98;36.15
34983;BME280;21187;50.976;13.720;2023-03-17T01:06:51;98312.53;;;7.00;36.12
34983;BME280;21187;50.976;13.720;2023-03-17T01:11:54;98304.63;;;7.04;35.99
34983;BME280;21187;50.976;13.720;2023-03-17T01:16:56;98287.66;;;7.03;35.87
34983;BME280;21187;50.976;13.720;2023-03-17T01:21:58;98291.75;;;7.09;35.94
34983;BME280;21187;50.976;13.720;2023-03-17T01:27:01;98283.19;;;7.07;36.00
34983;BME280;21187;50.976;13.720;2023-03-17T01:32:03;98285.44;;;7.05;36.12
34983;BME280;21187;50.976;13.720;2023-03-17T01:37:05;98271.97;;;7.05;35.80
34983;BME280;21187;50.976;13.720;2023-03-17T01:42:07;98260.53;;;7.08;35.72
34983;BME280;21187;50.976;13.720;2023-03-17T01:47:09;98248.19;;;7.07;35.39
34983;BME280;21187;50.976;13.720;2023-03-17T01:52:16;98235.69;;;7.11;35.74
34983;BME280;21187;50.976;13.720;2023-03-17T01:57:29;98235.00;;;7.14;35.71
34983;BME280;21187;50.976;13.720;2023-03-17T02:02:39;98231.41;;;7.10;35.92
34983;BME280;21187;50.976;13.720;2023-03-17T02:07:41;98226.63;;;7.07;35.96
34983;BME280;21187;50.976;13.720;2023-03-17T02:12:44;98227.78;;;7.06;35.63
34983;BME280;21187;50.976;13.720;2023-03-17T02:17:48;98224.59;;;7.04;35.48
34983;BME280;21187;50.976;13.720;2023-03-17T02:22:50;98217.47;;;7.08;35.52
34983;BME280;21187;50.976;13.720;2023-03-17T02:28:06;98204.78;;;7.09;34.94
34983;BME280;21187;50.976;13.720;2023-03-17T02:33:10;98205.56;;;7.09;35.29
34983;BME280;21187;50.976;13.720;2023-03-17T02:38:12;98212.53;;;7.10;35.34
34983;BME280;21187;50.976;13.720;2023-03-17T02:43:14;98208.41;;;7.13;34.97
34983;BME280;21187;50.976;13.720;2023-03-17T02:48:17;98213.19;;;7.07;35.21
34983;BME280;21187;50.976;13.720;2023-03-17T02:53:19;98231.44;;;7.02;34.94
34983;BME280;21187;50.976;13.720;2023-03-17T02:58:21;98228.41;;;7.03;35.09
34983;BME280;21187;50.976;13.720;2023-03-17T03:03:23;98221.47;;;7.02;34.89
34983;BME280;21187;50.976;13.720;2023-03-17T03:08:25;98216.72;;;6.99;34.42
34983;BME280;21187;50.976;13.720;2023-03-17T03:13:28;98214.53;;;6.92;34.54
34983;BME280;21187;50.976;13.720;2023-03-17T03:18:30;98200.63;;;6.90;34.21
34983;BME280;21187;50.976;13.720;2023-03-17T03:23:32;98207.72;;;6.95;34.08
34983;BME280;21187;50.976;13.720;2023-03-17T03:28:34;98203.44;;;6.94;34.27
34983;BME280;21187;50.976;13.720;2023-03-17T03:33:36;98196.50;;;6.93;34.36
34983;BME280;21187;50.976;13.720;2023-03-17T03:38:38;98200.13;;;6.88;34.01
34983;BME280;21187;50.976;13.720;2023-03-17T03:43:40;98196.03;;;6.82;34.52
34983;BME280;21187;50.976;13.720;2023-03-17T03:48:42;98193.03;;;6.83;34.13
34983;BME280;21187;50.976;13.720;2023-03-17T03:53:44;98193.03;;;6.83;34.22
34983;BME280;21187;50.976;13.720;2023-03-17T03:58:47;98193.16;;;6.87;34.07
34983;BME280;21187;50.976;13.720;2023-03-17T04:03:49;98187.16;;;6.90;34.08
34983;BME280;21187;50.976;13.720;2023-03-17T04:08:51;98194.25;;;6.95;34.21
34983;BME280;21187;50.976;13.720;2023-03-17T04:13:53;98185.97;;;7.00;34.59
34983;BME280;21187;50.976;13.720;2023-03-17T04:18:56;98190.72;;;7.03;34.43
34983;BME280;21187;50.976;13.720;2023-03-17T04:23:58;98195.47;;;7.06;34.40
34983;BME280;21187;50.976;13.720;2023-03-17T04:29:00;98202.28;;;7.04;34.60
34983;BME280;21187;50.976;13.720;2023-03-17T04:34:02;98198.34;;;7.01;34.74
34983;BME280;21187;50.976;13.720;2023-03-17T04:39:03;98195.84;;;6.96;34.79
34983;BME280;21187;50.976;13.720;2023-03-17T04:44:06;98193.13;;;6.96;35.13
34983;BME280;21187;50.976;13.720;2023-03-17T04:49:08;98188.41;;;6.93;35.19
34983;BME280;21187;50.976;13.720;2023-03-17T04:54:10;98195.53;;;6.89;35.09
34983;BME280;21187;50.976;13.720;2023-03-17T04:59:12;98186.09;;;6.82;35.41
34983;BME280;21187;50.976;13.720;2023-03-17T05:04:14;98180.91;;;6.69;35.34
34983;BME280;21187;50.976;13.720;2023-03-17T05:09:31;98172.44;;;6.49;35.66
34983;BME280;21187;50.976;13.720;2023-03-17T05:14:33;98173.59;;;6.39;35.91
34983;BME280;21187;50.976;13.720;2023-03-17T05:19:35;98165.69;;;6.34;36.01
34983;BME280;21187;50.976;13.720;2023-03-17T05:24:37;98150.97;;;6.31;36.40
34983;BME280;21187;50.976;13.720;2023-03-17T05:29:39;98154.00;;;6.30;36.18
34983;BME280;21187;50.976;13.720;2023-03-17T05:34:41;98160.97;;;6.31;36.18
34983;BME280;21187;50.976;13.720;2023-03-17T05:39:42;98158.56;;;6.29;36.60
34983;BME280;21187;50.976;13.720;2023-03-17T05:44:44;98165.41;;;6.27;36.64
34983;BME280;21187;50.976;13.720;2023-03-17T05:49:46;98167.78;;;6.20;36.48
34983;BME280;21187;50.976;13.720;2023-03-17T05:54:48;98165.75;;;6.16;37.01
34983;BME280;21187;50.976;13.720;2023-03-17T05:59:52;98184.41;;;6.13;36.64
34983;BME280;21187;50.976;13.720;2023-03-17T06:04:55;98183.94;;;6.11;36.83
34983;BME280;21187;50.976;13.720;2023-03-17T06:09:57;98188.53;;;6.10;37.14
34983;BME280;21187;50.976;13.720;2023-03-17T06:14:59;98197.38;;;6.11;37.48
34983;BME280;21187;50.976;13.720;2023-03-17T06:20:02;98185.34;;;6.08;36.98
34983;BME280;21187;50.976;13.720;2023-03-17T06:25:05;98167.97;;;6.06;37.34
34983;BME280;21187;50.976;13.720;2023-03-17T06:30:08;98176.19;;;6.09;37.17
34983;BME280;21187;50.976;13.720;2023-03-17T06:35:10;98173.16;;;6.20;37.67
34983;BME280;21187;50.976;13.720;2023-03-17T06:40:13;98191.00;;;6.33;37.24
34983;BME280;21187;50.976;13.720;2023-03-17T06:45:15;98206.47;;;6.54;37.35
34983;BME280;21187;50.976;13.720;2023-03-17T06:50:18;98194.03;;;6.70;37.23
34983;BME280;21187;50.976;13.720;2023-03-17T06:55:20;98202.84;;;6.88;37.13
34983;BME280;21187;50.976;13.720;2023-03-17T07:00:22;98200.66;;;7.11;36.90
34983;BME280;21187;50.976;13.720;2023-03-17T07:05:24;98217.44;;;7.38;36.85
34983;BME280;21187;50.976;13.720;2023-03-17T07:10:26;98224.09;;;7.62;36.60
34983;BME280;21187;50.976;13.720;2023-03-17T07:15:29;98201.59;;;8.00;36.34
34983;BME280;21187;50.976;13.720;2023-03-17T07:20:35;98180.53;;;8.27;35.82
34983;BME280;21187;50.976;13.720;2023-03-17T07:25:37;98200.63;;;8.51;35.83
34983;BME280;21187;50.976;13.720;2023-03-17T07:30:39;98189.19;;;8.78;35.39
34983;BME280;21187;50.976;13.720;2023-03-17T07:35:44;98176.81;;;8.90;35.72
34983;BME280;21187;50.976;13.720;2023-03-17T07:40:47;98166.00;;;8.77;35.21
34983;BME280;21187;50.976;13.720;2023-03-17T07:45:49;98156.09;;;8.57;35.31
34983;BME280;21187;50.976;13.720;2023-03-17T07:50:52;98157.72;;;8.37;35.09
34983;BME280;21187;50.976;13.720;2023-03-17T07:55:54;98149.63;;;8.24;35.68
34983;BME280;21187;50.976;13.720;2023-03-17T08:00:55;98148.72;;;8.20;35.70
34983;BME280;21187;50.976;13.720;2023-03-17T08:05:58;98162.28;;;8.11;35.71
34983;BME280;21187;50.976;13.720;2023-03-17T08:11:03;98152.09;;;8.17;35.93
34983;BME280;21187;50.976;13.720;2023-03-17T08:16:08;98142.72;;;8.48;36.02
34983;BME280;21187;50.976;13.720;2023-03-17T08:21:10;98150.69;;;8.81;35.24
34983;BME280;21187;50.976;13.720;2023-03-17T08:26:15;98152.47;;;9.14;35.04
34983;BME280;21187;50.976;13.720;2023-03-17T08:31:19;98137.88;;;9.44;34.54
34983;BME280;21187;50.976;13.720;2023-03-17T08:36:22;98131.81;;;9.75;34.62
34983;BME280;21187;50.976;13.720;2023-03-17T08:41:25;98131.88;;;10.07;34.06
34983;BME280;21187;50.976;13.720;2023-03-17T08:46:30;98132.41;;;10.29;34.32
34983;BME280;21187;50.976;13.720;2023-03-17T08:51:34;98134.06;;;10.33;33.65
34983;BME280;21187;50.976;13.720;2023-03-17T08:56:38;98124.16;;;10.38;33.51
34983;BME280;21187;50.976;13.720;2023-03-17T09:01:40;98134.53;;;10.52;33.55
34983;BME280;21187;50.976;13.720;2023-03-17T09:06:44;98122.63;;;10.72;33.24
34983;BME280;21187;50.976;13.720;2023-03-17T09:12:05;98117.69;;;10.94;33.45
34983;BME280;21187;50.976;13.720;2023-03-17T09:17:07;98119.63;;;11.29;32.64
34983;BME280;21187;50.976;13.720;2023-03-17T09:22:14;98112.06;;;11.58;32.52
34983;BME280;21187;50.976;13.720;2023-03-17T09:27:16;98108.78;;;11.48;32.55
34983;BME280;21187;50.976;13.720;2023-03-17T09:32:18;98102.47;;;11.83;31.84
34983;BME280;21187;50.976;13.720;2023-03-17T09:37:20;98101.75;;;12.06;31.81
34983;BME280;21187;50.976;13.720;2023-03-17T09:42:45;98104.16;;;12.35;31.67
34983;BME280;21187;50.976;13.720;2023-03-17T09:48:30;98098.91;;;12.45;31.29
34983;BME280;21187;50.976;13.720;2023-03-17T09:54:01;98100.03;;;12.44;31.29
34983;BME280;21187;50.976;13.720;2023-03-17T09:59:15;98113.13;;;12.62;31.37
34983;BME280;21187;50.976;13.720;2023-03-17T10:04:24;98108.31;;;12.78;30.65
34983;BME280;21187;50.976;13.720;2023-03-17T10:09:33;98112.50;;;12.99;30.58
34983;BME280;21187;50.976;13.720;2023-03-17T10:14:41;98110.06;;;13.21;31.04
34983;BME280;21187;50.976;13.720;2023-03-17T10:20:14;98099.28;;;13.28;30.42
34983;BME280;21187;50.976;13.720;2023-03-17T10:25:22;98100.22;;;13.39;29.82
34983;BME280;21187;50.976;13.720;2023-03-17T10:30:25;98099.91;;;13.44;30.13
34983;BME280;21187;50.976;13.720;2023-03-17T10:35:29;98090.28;;;13.51;29.60
34983;BME280;21187;50.976;13.720;2023-03-17T10:40:36;98097.44;;;13.66;29.42
34983;BME280;21187;50.976;13.720;2023-03-17T10:45:46;98087.88;;;13.79;29.15
34983;BME280;21187;50.976;13.720;2023-03-17T10:50:57;98094.66;;;14.00;29.50
34983;BME280;21187;50.976;13.720;2023-03-17T10:56:07;98107.00;;;14.31;29.34
34983;BME280;21187;50.976;13.720;2023-03-17T11:01:33;98091.16;;;14.44;28.85
34983;BME280;21187;50.976;13.720;2023-03-17T11:06:41;98093.59;;;14.57;28.61
34983;BME280;21187;50.976;13.720;2023-03-17T11:11:46;98089.06;;;14.75;28.68
34983;BME280;21187;50.976;13.720;2023-03-17T11:16:55;98083.31;;;14.88;28.56
34983;BME280;21187;50.976;13.720;2023-03-17T11:21:59;98077.44;;;14.78;28.26
34983;BME280;21187;50.976;13.720;2023-03-17T11:27:37;98078.94;;;14.72;28.45
34983;BME280;21187;50.976;13.720;2023-03-17T11:32:54;98072.78;;;14.83;28.70
34983;BME280;21187;50.976;13.720;2023-03-17T11:38:30;98072.84;;;14.93;28.49
34983;BME280;21187;50.976;13.720;2023-03-17T11:48:57;98059.38;;;15.33;28.28
34983;BME280;21187;50.976;13.720;2023-03-17T11:59:38;98047.38;;;15.63;28.22
34983;BME280;21187;50.976;13.720;2023-03-17T12:04:49;98045.44;;;15.67;28.37
34983;BME280;21187;50.976;13.720;2023-03-17T12:15:04;98042.00;;;15.92;28.06
34983;BME280;21187;50.976;13.720;2023-03-17T12:20:12;98033.03;;;16.09;27.98
34983;BME280;21187;50.976;13.720;2023-03-17T12:25:29;98016.25;;;16.43;27.76
34983;BME280;21187;50.976;13.720;2023-03-17T12:30:53;98017.75;;;16.66;27.57
34983;BME280;21187;50.976;13.720;2023-03-17T12:35:57;98023.19;;;16.73;26.95
34983;BME280;21187;50.976;13.720;2023-03-17T12:47:05;98009.59;;;16.55;26.95
34983;BME280;21187;50.976;13.720;2023-03-17T12:57:40;97996.75;;;16.23;26.96
34983;BME280;21187;50.976;13.720;2023-03-17T13:02:44;98008.47;;;16.13;26.85
34983;BME280;21187;50.976;13.720;2023-03-17T13:07:51;97998.31;;;16.03;27.24
34983;BME280;21187;50.976;13.720;2023-03-17T13:13:07;97992.06;;;15.95;27.38
34983;BME280;21187;50.976;13.720;2023-03-17T13:23:15;97981.09;;;15.59;27.86
34983;BME280;21187;50.976;13.720;2023-03-17T13:33:44;97970.16;;;15.48;28.01
34983;BME280;21187;50.976;13.720;2023-03-17T13:38:49;97975.63;;;15.52;27.92
34983;BME280;21187;50.976;13.720;2023-03-17T13:49:39;97957.28;;;15.38;28.77
34983;BME280;21187;50.976;13.720;2023-03-17T13:54:46;97945.97;;;15.36;29.09
34983;BME280;21187;50.976;13.720;2023-03-17T13:59:58;97951.44;;;15.43;28.83
34983;BME280;21187;50.976;13.720;2023-03-17T14:05:07;97945.19;;;15.42;28.90
34983;BME280;21187;50.976;13.720;2023-03-17T14:10:19;97950.66;;;15.35;28.97
34983;BME280;21187;50.976;13.720;2023-03-17T14:15:33;97944.41;;;15.38;28.99
34983;BME280;21187;50.976;13.720;2023-03-17T14:20:35;97954.56;;;15.48;28.88
34983;BME280;21187;50.976;13.720;2023-03-17T14:25:38;97941.31;;;15.47;28.91
34983;BME280;21187;50.976;13.720;2023-03-17T14:30:50;97945.97;;;15.46;28.88
34983;BME280;21187;50.976;13.720;2023-03-17T14:35:56;97939.72;;;15.35;29.16
34983;BME280;21187;50.976;13.720;2023-03-17T14:46:11;97933.34;;;14.77;30.11
34983;BME280;21187;50.976;13.720;2023-03-17T14:51:33;97919.34;;;14.82;30.14
34983;BME280;21187;50.976;13.720;2023-03-17T14:56:41;97919.00;;;14.98;29.85
34983;BME280;21187;50.976;13.720;2023-03-17T15:01:45;97921.72;;;15.02;29.62
34983;BME280;21187;50.976;13.720;2023-03-17T15:07:03;97918.59;;;15.00;29.44
34983;BME280;21187;50.976;13.720;2023-03-17T15:12:12;97916.22;;;14.87;29.58
34983;BME280;21187;50.976;13.720;2023-03-17T15:17:21;97910.72;;;14.76;29.66
34983;BME280;21187;50.976;13.720;2023-03-17T15:27:30;97900.13;;;14.60;30.33
34983;BME280;21187;50.976;13.720;2023-03-17T15:32:32;97911.41;;;14.52;30.39
34983;BME280;21187;50.976;13.720;2023-03-17T15:37:34;97916.78;;;14.44;30.23
34983;BME280;21187;50.976;13.720;2023-03-17T15:42:37;97917.50;;;14.27;30.48
34983;BME280;21187;50.976;13.720;2023-03-17T15:47:41;97911.75;;;13.84;30.94
34983;BME280;21187;50.976;13.720;2023-03-17T15:52:44;97911.06;;;13.94;31.08
34983;BME280;21187;50.976;13.720;2023-03-17T15:57:46;97920.75;;;13.91;30.95
34983;BME280;21187;50.976;13.720;2023-03-17T16:02:58;97907.88;;;13.85;30.98
34983;BME280;21187;50.976;13.720;2023-03-17T16:08:01;97896.91;;;13.77;31.15
34983;BME280;21187;50.976;13.720;2023-03-17T16:13:03;97903.06;;;13.67;31.70
34983;BME280;21187;50.976;13.720;2023-03-17T16:18:17;97900.25;;;13.53;31.89
34983;BME280;21187;50.976;13.720;2023-03-17T16:23:23;97887.34;;;13.46;31.78
34983;BME280;21187;50.976;13.720;2023-03-17T16:28:29;97876.41;;;13.39;31.87
34983;BME280;21187;50.976;13.720;2023-03-17T16:33:38;97885.66;;;13.30;32.12
34983;BME280;21187;50.976;13.720;2023-03-17T16:38:41;97881.66;;;13.21;32.08
34983;BME280;21187;50.976;13.720;2023-03-17T16:43:44;97882.78;;;13.16;32.50
34983;BME280;21187;50.976;13.720;2023-03-17T16:48:47;97880.75;;;13.06;32.53
34983;BME280;21187;50.976;13.720;2023-03-17T16:53:50;97890.75;;;12.98;32.68
34983;BME280;21187;50.976;13.720;2023-03-17T16:58:51;97891.41;;;12.88;32.91
34983;BME280;21187;50.976;13.720;2023-03-17T17:03:54;97895.25;;;12.83;33.27
34983;BME280;21187;50.976;13.720;2023-03-17T17:08:56;97903.47;;;12.87;33.00
34983;BME280;21187;50.976;13.720;2023-03-17T17:13:58;97903.03;;;12.85;33.11
34983;BME280;21187;50.976;13.720;2023-03-17T17:19:01;97908.81;;;12.79;33.08
34983;BME280;21187;50.976;13.720;2023-03-17T17:24:03;97900.59;;;12.72;33.45
34983;BME280;21187;50.976;13.720;2023-03-17T17:29:06;97907.09;;;12.68;33.41
34983;BME280;21187;50.976;13.720;2023-03-17T17:34:08;97907.38;;;12.59;33.62
34983;BME280;21187;50.976;13.720;2023-03-17T17:39:09;97909.69;;;12.57;33.50
34983;BME280;21187;50.976;13.720;2023-03-17T17:44:15;97902.69;;;12.56;33.49
34983;BME280;21187;50.976;13.720;2023-03-17T17:49:19;97898.00;;;12.53;33.41
34983;BME280;21187;50.976;13.720;2023-03-17T17:54:21;97904.09;;;12.42;33.71
34983;BME280;21187;50.976;13.720;2023-03-17T17:59:24;97899.41;;;12.39;33.83
34983;BME280;21187;50.976;13.720;2023-03-17T18:04:26;97899.34;;;12.36;33.80
34983;BME280;21187;50.976;13.720;2023-03-17T18:09:28;97886.84;;;12.31;34.11
34983;BME280;21187;50.976;13.720;2023-03-17T18:14:32;97889.91;;;12.26;34.06
34983;BME280;21187;50.976;13.720;2023-03-17T18:19:35;97876.66;;;12.21;33.97
34983;BME280;21187;50.976;13.720;2023-03-17T18:24:37;97877.31;;;12.14;34.34
34983;BME280;21187;50.976;13.720;2023-03-17T18:29:40;97878.00;;;12.07;34.55
34983;BME280;21187;50.976;13.720;2023-03-17T18:34:44;97867.91;;;12.04;34.34
34983;BME280;21187;50.976;13.720;2023-03-17T18:39:46;97874.16;;;12.08;34.23
34983;BME280;21187;50.976;13.720;2023-03-17T18:45:09;97862.47;;;12.04;34.23
34983;BME280;21187;50.976;13.720;2023-03-17T18:50:13;97862.72;;;11.95;34.51
34983;BME280;21187;50.976;13.720;2023-03-17T18:55:16;97849.59;;;11.74;35.04
34983;BME280;21187;50.976;13.720;2023-03-17T19:00:18;97862.84;;;11.79;34.52
34983;BME280;21187;50.976;13.720;2023-03-17T19:05:20;97859.84;;;11.58;34.88
34983;BME280;21187;50.976;13.720;2023-03-17T19:10:22;97852.75;;;11.76;34.36
34983;BME280;21187;50.976;13.720;2023-03-17T19:15:24;97841.91;;;11.76;34.35
34983;BME280;21187;50.976;13.720;2023-03-17T19:20:26;97856.59;;;11.75;34.64
34983;BME280;21187;50.976;13.720;2023-03-17T19:25:28;97851.91;;;11.72;34.41
34983;BME280;21187;50.976;13.720;2023-03-17T19:30:30;97847.19;;;11.69;34.33
34983;BME280;21187;50.976;13.720;2023-03-17T19:35:33;97854.50;;;11.65;34.09
34983;BME280;21187;50.976;13.720;2023-03-17T19:40:34;97863.38;;;11.62;34.09
34983;BME280;21187;50.976;13.720;2023-03-17T19:45:37;97859.53;;;11.63;34.10
34983;BME280;21187;50.976;13.720;2023-03-17T19:50:39;97860.72;;;11.65;34.05
34983;BME280;21187;50.976;13.720;2023-03-17T19:55:42;97854.81;;;11.60;33.90
34983;BME280;21187;50.976;13.720;2023-03-17T20:00:44;97857.06;;;11.54;33.95
34983;BME280;21187;50.976;13.720;2023-03-17T20:05:46;97868.63;;;11.51;33.75
34983;BME280;21187;50.976;13.720;2023-03-17T20:10:52;97869.41;;;11.52;33.69
34983;BME280;21187;50.976;13.720;2023-03-17T20:15:54;97871.72;;;11.49;33.63
34983;BME280;21187;50.976;13.720;2023-03-17T20:20:56;97880.19;;;11.48;33.72
34983;BME280;21187;50.976;13.720;2023-03-17T20:26:00;97872.72;;;11.41;33.62
34983;BME280;21187;50.976;13.720;2023-03-17T20:31:03;97870.66;;;11.31;33.84
34983;BME280;21187;50.976;13.720;2023-03-17T20:36:07;97875.94;;;11.24;33.90
34983;BME280;21187;50.976;13.720;2023-03-17T20:41:12;97878.16;;;11.18;33.80
34983;BME280;21187;50.976;13.720;2023-03-17T20:46:22;97874.94;;;11.12;33.31
34983;BME280;21187;50.976;13.720;2023-03-17T20:51:25;97866.81;;;11.12;33.49
34983;BME280;21187;50.976;13.720;2023-03-17T20:56:28;97864.84;;;11.09;33.38
34983;BME280;21187;50.976;13.720;2023-03-17T21:01:32;97864.88;;;10.90;34.22
34983;BME280;21187;50.976;13.720;2023-03-17T21:06:36;97857.91;;;11.12;33.12
34983;BME280;21187;50.976;13.720;2023-03-17T21:11:39;97853.28;;;11.12;33.46
34983;BME280;21187;50.976;13.720;2023-03-17T21:16:41;97859.41;;;11.09;33.20
34983;BME280;21187;50.976;13.720;2023-03-17T21:21:45;97861.72;;;11.07;33.33
34983;BME280;21187;50.976;13.720;2023-03-17T21:26:47;97860.16;;;11.06;33.22
34983;BME280;21187;50.976;13.720;2023-03-17T21:31:49;97857.44;;;11.06;32.89
34983;BME280;21187;50.976;13.720;2023-03-17T21:36:52;97855.78;;;11.02;33.14
34983;BME280;21187;50.976;13.720;2023-03-17T21:41:54;97849.06;;;10.92;33.37
34983;BME280;21187;50.976;13.720;2023-03-17T21:46:56;97855.25;;;10.92;33.46
34983;BME280;21187;50.976;13.720;2023-03-17T21:51:58;97852.06;;;10.87;33.12
34983;BME280;21187;50.976;13.720;2023-03-17T21:57:00;97846.94;;;10.81;33.14
34983;BME280;21187;50.976;13.720;2023-03-17T22:02:02;97842.25;;;10.78;33.00
34983;BME280;21187;50.976;13.720;2023-03-17T22:07:04;97843.53;;;10.65;33.11
34983;BME280;21187;50.976;13.720;2023-03-17T22:12:06;97850.09;;;10.64;33.24
34983;BME280;21187;50.976;13.720;2023-03-17T22:17:08;97866.38;;;10.68;33.02
34983;BME280;21187;50.976;13.720;2023-03-17T22:22:10;97869.91;;;10.68;32.79
34983;BME280;21187;50.976;13.720;2023-03-17T22:27:13;97855.50;;;10.64;32.85
34983;BME280;21187;50.976;13.720;2023-03-17T22:32:15;97847.66;;;10.59;32.85
34983;BME280;21187;50.976;13.720;2023-03-17T22:37:18;97841.41;;;10.55;32.62
34983;BME280;21187;50.976;13.720;2023-03-17T22:42:20;97840.56;;;10.51;32.38
34983;BME280;21187;50.976;13.720;2023-03-17T22:47:22;97839.69;;;10.46;32.73
34983;BME280;21187;50.976;13.720;2023-03-17T22:52:24;97837.69;;;10.43;32.88
34983;BME280;21187;50.976;13.720;2023-03-17T22:57:25;97837.88;;;10.35;32.62
34983;BME280;21187;50.976;13.720;2023-03-17T23:02:27;97843.22;;;10.31;32.41
34983;BME280;21187;50.976;13.720;2023-03-17T23:07:30;97833.69;;;10.18;32.78
34983;BME280;21187;50.976;13.720;2023-03-17T23:12:41;97830.53;;;10.15;32.95
34983;BME280;21187;50.976;13.720;2023-03-17T23:17:44;97830.81;;;10.10;32.78
34983;BME280;21187;50.976;13.720;2023-03-17T23:22:46;97839.78;;;10.14;32.80
34983;BME280;21187;50.976;13.720;2023-03-17T23:27:48;97838.22;;;10.13;32.63
34983;BME280;21187;50.976;13.720;2023-03-17T23:32:50;97843.63;;;10.13;32.44
34983;BME280;21187;50.976;13.720;2023-03-17T23:37:52;97847.91;;;10.14;32.96
34983;BME280;21187;50.976;13.720;2023-03-17T23:42:54;97848.63;;;10.11;32.86
34983;BME280;21187;50.976;13.720;2023-03-17T23:47:56;97846.56;;;10.05;33.12
34983;BME280;21187;50.976;13.720;2023-03-17T23:52:58;97847.19;;;9.98;32.69
34983;BME280;21187;50.976;13.720;2023-03-17T23:58:00;97846.31;;;9.94;32.51
